sensor_id;sensor_type;location;lat;lon;timestamp;P1;durP1;ratioP1;P2;durP2;ratioP2
7661;SDS011;30314;48.184;11.510;2024-03-23T00:54:02;2.23;;;1.60;;
7661;SDS011;30314;48.184;11.510;2024-03-23T00:56:29;4.80;;;1.67;;
7661;SDS011;30314;48.184;11.510;2024-03-23T00:58:54;4.07;;;2.20;;
7661;SDS011;30314;48.184;11.510;2024-03-23T01:01:20;2.70;;;2.10;;
7661;SDS011;30314;48.184;11.510;2024-03-23T01:03:46;4.07;;;2.70;;
7661;SDS011;30314;48.184;11.510;2024-03-23T01:06:12;5.87;;;2.27;;
7661;SDS011;30314;48.184;11.510;2024-03-23T01:08:37;5.10;;;2.40;;
7661;SDS011;30314;48.184;11.510;2024-03-23T01:11:03;2.97;;;2.67;;
7661;SDS011;30314;48.184;11.510;2024-03-23T01:13:29;3.10;;;1.60;;
7661;SDS011;30314;48.184;11.510;2024-03-23T01:15:55;7.53;;;2.20;;
7661;SDS011;30314;48.184;11.510;2024-03-23T01:18:22;4.00;;;1.60;;
7661;SDS011;30314;48.184;11.510;2024-03-23T01:20:48;2.50;;;1.43;;
7661;SDS011;30314;48.184;11.510;2024-03-23T01:23:15;2.83;;;1.50;;
7661;SDS011;30314;48.184;11.510;2024-03-23T01:25:40;7.10;;;1.37;;
7661;SDS011;30314;48.184;11.510;2024-03-23T01:28:06;2.73;;;1.60;;
7661;SDS011;30314;48.184;11.510;2024-03-23T01:30:32;3.00;;;1.83;;
7661;SDS011;30314;48.184;11.510;2024-03-23T01:33:01;4.13;;;1.60;;
7661;SDS011;30314;48.184;11.510;2024-03-23T01:35:30;2.57;;;1.67;;
7661;SDS011;30314;48.184;11.510;2024-03-23T01:37:56;2.87;;;1.80;;
7661;SDS011;30314;48.184;11.510;2024-03-23T01:40:21;4.10;;;1.67;;
7661;SDS011;30314;48.184;11.510;2024-03-23T01:43:08;2.10;;;1.30;;
7661;SDS011;30314;48.184;11.510;2024-03-23T01:45:33;5.03;;;1.90;;
7661;SDS011;30314;48.184;11.510;2024-03-23T01:48:00;2.77;;;1.40;;
7661;SDS011;30314;48.184;11.510;2024-03-23T01:50:27;2.53;;;1.77;;
7661;SDS011;30314;48.184;11.510;2024-03-23T01:52:53;2.57;;;1.37;;
7661;SDS011;30314;48.184;11.510;2024-03-23T01:55:19;1.70;;;1.30;;
7661;SDS011;30314;48.184;11.510;2024-03-23T01:57:46;2.00;;;1.40;;
7661;SDS011;30314;48.184;11.510;2024-03-23T02:00:12;2.70;;;1.73;;
7661;SDS011;30314;48.184;11.510;2024-03-23T02:02:44;2.20;;;1.00;;
7661;SDS011;30314;48.184;11.510;2024-03-23T02:05:11;4.50;;;1.53;;
7661;SDS011;30314;48.184;11.510;2024-03-23T02:07:37;2.13;;;1.10;;
7661;SDS011;30314;48.184;11.510;2024-03-23T02:10:05;7.63;;;1.63;;
7661;SDS011;30314;48.184;11.510;2024-03-23T02:12:32;3.10;;;1.50;;
7661;SDS011;30314;48.184;11.510;2024-03-23T02:14:57;3.27;;;1.27;;
7661;SDS011;30314;48.184;11.510;2024-03-23T02:17:23;3.23;;;1.57;;
7661;SDS011;30314;48.184;11.510;2024-03-23T02:19:48;3.53;;;1.50;;
7661;SDS011;30314;48.184;11.510;2024-03-23T02:22:14;2.83;;;1.30;;
7661;SDS011;30314;48.184;11.510;2024-03-23T02:24:41;4.83;;;1.40;;
7661;SDS011;30314;48.184;11.510;2024-03-23T02:27:07;2.90;;;1.37;;
7661;SDS011;30314;48.184;11.510;2024-03-23T02:29:33;5.07;;;1.40;;
7661;SDS011;30314;48.184;11.510;2024-03-23T02:31:58;3.70;;;1.27;;
7661;SDS011;30314;48.184;11.510;2024-03-23T02:34:24;6.10;;;1.17;;
7661;SDS011;30314;48.184;11.510;2024-03-23T02:36:50;3.03;;;1.83;;
7661;SDS011;30314;48.184;11.510;2024-03-23T02:39:15;2.03;;;1.47;;
7661;SDS011;30314;48.184;11.510;2024-03-23T02:41:41;2.43;;;1.07;;
7661;SDS011;30314;48.184;11.510;2024-03-23T02:44:06;2.27;;;1.23;;
7661;SDS011;30314;48.184;11.510;2024-03-23T02:46:33;1.47;;;0.83;;
7661;SDS011;30314;48.184;11.510;2024-03-23T02:48:58;4.80;;;1.87;;
7661;SDS011;30314;48.184;11.510;2024-03-23T02:51:24;3.47;;;1.40;;
7661;SDS011;30314;48.184;11.510;2024-03-23T02:53:49;5.33;;;2.10;;
7661;SDS011;30314;48.184;11.510;2024-03-23T02:56:15;2.40;;;1.20;;
7661;SDS011;30314;48.184;11.510;2024-03-23T02:58:45;3.20;;;1.37;;
7661;SDS011;30314;48.184;11.510;2024-03-23T03:01:10;4.93;;;1.67;;
7661;SDS011;30314;48.184;11.510;2024-03-23T03:03:36;1.73;;;1.00;;
7661;SDS011;30314;48.184;11.510;2024-03-23T03:06:01;2.03;;;1.37;;
7661;SDS011;30314;48.184;11.510;2024-03-23T03:08:27;5.80;;;1.90;;
7661;SDS011;30314;48.184;11.510;2024-03-23T03:10:53;3.13;;;1.30;;
7661;SDS011;30314;48.184;11.510;2024-03-23T03:13:18;4.13;;;1.57;;
7661;SDS011;30314;48.184;11.510;2024-03-23T03:15:44;4.30;;;1.17;;
7661;SDS011;30314;48.184;11.510;2024-03-23T03:18:09;4.00;;;1.57;;
7661;SDS011;30314;48.184;11.510;2024-03-23T03:20:38;2.30;;;1.30;;
7661;SDS011;30314;48.184;11.510;2024-03-23T03:23:05;3.10;;;1.53;;
7661;SDS011;30314;48.184;11.510;2024-03-23T03:25:31;3.10;;;1.67;;
7661;SDS011;30314;48.184;11.510;2024-03-23T03:27:57;4.73;;;1.57;;
7661;SDS011;30314;48.184;11.510;2024-03-23T03:30:22;3.77;;;1.30;;
7661;SDS011;30314;48.184;11.510;2024-03-23T03:32:49;1.97;;;1.60;;
7661;SDS011;30314;48.184;11.510;2024-03-23T03:35:15;3.67;;;1.70;;
7661;SDS011;30314;48.184;11.510;2024-03-23T03:37:40;3.10;;;1.57;;
7661;SDS011;30314;48.184;11.510;2024-03-23T03:40:06;3.63;;;1.50;;
7661;SDS011;30314;48.184;11.510;2024-03-23T03:42:34;2.70;;;1.30;;
7661;SDS011;30314;48.184;11.510;2024-03-23T03:45:00;1.73;;;1.40;;
7661;SDS011;30314;48.184;11.510;2024-03-23T03:47:26;2.13;;;1.30;;
7661;SDS011;30314;48.184;11.510;2024-03-23T03:49:51;2.23;;;1.37;;
7661;SDS011;30314;48.184;11.510;2024-03-23T03:52:17;4.70;;;1.43;;
7661;SDS011;30314;48.184;11.510;2024-03-23T03:54:42;4.70;;;1.43;;
7661;SDS011;30314;48.184;11.510;2024-03-23T03:57:08;2.10;;;1.10;;
7661;SDS011;30314;48.184;11.510;2024-03-23T03:59:34;4.10;;;1.90;;
7661;SDS011;30314;48.184;11.510;2024-03-23T04:02:00;2.90;;;1.20;;
7661;SDS011;30314;48.184;11.510;2024-03-23T04:04:25;2.50;;;1.53;;
7661;SDS011;30314;48.184;11.510;2024-03-23T04:06:58;4.57;;;1.10;;
7661;SDS011;30314;48.184;11.510;2024-03-23T04:09:27;3.37;;;1.33;;
7661;SDS011;30314;48.184;11.510;2024-03-23T04:11:53;3.00;;;1.80;;
7661;SDS011;30314;48.184;11.510;2024-03-23T04:14:19;1.53;;;1.30;;
7661;SDS011;30314;48.184;11.510;2024-03-23T04:16:44;3.30;;;1.87;;
7661;SDS011;30314;48.184;11.510;2024-03-23T04:19:10;2.50;;;1.57;;
7661;SDS011;30314;48.184;11.510;2024-03-23T04:21:36;1.87;;;1.57;;
7661;SDS011;30314;48.184;11.510;2024-03-23T04:24:05;1.40;;;1.00;;
7661;SDS011;30314;48.184;11.510;2024-03-23T04:26:40;2.50;;;1.30;;
7661;SDS011;30314;48.184;11.510;2024-03-23T04:29:06;7.73;;;1.80;;
7661;SDS011;30314;48.184;11.510;2024-03-23T04:31:32;2.60;;;1.50;;
7661;SDS011;30314;48.184;11.510;2024-03-23T04:34:03;2.07;;;1.10;;
7661;SDS011;30314;48.184;11.510;2024-03-23T04:36:28;3.20;;;1.67;;
7661;SDS011;30314;48.184;11.510;2024-03-23T04:38:54;3.17;;;1.40;;
7661;SDS011;30314;48.184;11.510;2024-03-23T04:41:20;3.53;;;1.30;;
7661;SDS011;30314;48.184;11.510;2024-03-23T04:43:46;4.70;;;1.23;;
7661;SDS011;30314;48.184;11.510;2024-03-23T04:46:13;3.63;;;1.13;;
7661;SDS011;30314;48.184;11.510;2024-03-23T04:48:38;4.43;;;1.33;;
7661;SDS011;30314;48.184;11.510;2024-03-23T04:51:04;2.80;;;1.40;;
7661;SDS011;30314;48.184;11.510;2024-03-23T04:53:29;4.27;;;1.47;;
7661;SDS011;30314;48.184;11.510;2024-03-23T04:55:55;3.73;;;1.40;;
7661;SDS011;30314;48.184;11.510;2024-03-23T04:58:25;1.80;;;1.37;;
7661;SDS011;30314;48.184;11.510;2024-03-23T05:00:54;2.90;;;1.20;;
7661;SDS011;30314;48.184;11.510;2024-03-23T05:03:20;2.13;;;1.30;;
7661;SDS011;30314;48.184;11.510;2024-03-23T05:05:47;2.60;;;1.33;;
7661;SDS011;30314;48.184;11.510;2024-03-23T05:08:14;2.13;;;1.33;;
7661;SDS011;30314;48.184;11.510;2024-03-23T05:10:41;2.87;;;1.47;;
7661;SDS011;30314;48.184;11.510;2024-03-23T05:13:11;3.43;;;1.40;;
7661;SDS011;30314;48.184;11.510;2024-03-23T05:15:37;2.13;;;1.50;;
7661;SDS011;30314;48.184;11.510;2024-03-23T05:18:03;2.63;;;1.60;;
7661;SDS011;30314;48.184;11.510;2024-03-23T05:20:30;1.80;;;1.20;;
7661;SDS011;30314;48.184;11.510;2024-03-23T05:22:56;1.83;;;1.40;;
7661;SDS011;30314;48.184;11.510;2024-03-23T05:25:22;2.97;;;1.37;;
7661;SDS011;30314;48.184;11.510;2024-03-23T05:27:48;2.03;;;1.23;;
7661;SDS011;30314;48.184;11.510;2024-03-23T05:30:13;3.70;;;0.97;;
7661;SDS011;30314;48.184;11.510;2024-03-23T05:32:39;3.87;;;1.50;;
7661;SDS011;30314;48.184;11.510;2024-03-23T05:35:09;3.23;;;1.37;;
7661;SDS011;30314;48.184;11.510;2024-03-23T05:37:34;3.00;;;1.47;;
7661;SDS011;30314;48.184;11.510;2024-03-23T05:40:00;1.63;;;1.10;;
7661;SDS011;30314;48.184;11.510;2024-03-23T05:42:26;2.03;;;1.33;;
7661;SDS011;30314;48.184;11.510;2024-03-23T05:44:52;2.20;;;1.50;;
7661;SDS011;30314;48.184;11.510;2024-03-23T05:47:17;4.10;;;1.33;;
7661;SDS011;30314;48.184;11.510;2024-03-23T05:49:43;4.47;;;0.97;;
7661;SDS011;30314;48.184;11.510;2024-03-23T05:52:09;4.83;;;1.40;;
7661;SDS011;30314;48.184;11.510;2024-03-23T05:54:38;2.70;;;1.10;;
7661;SDS011;30314;48.184;11.510;2024-03-23T05:57:03;3.00;;;1.47;;
7661;SDS011;30314;48.184;11.510;2024-03-23T05:59:29;1.37;;;0.90;;
7661;SDS011;30314;48.184;11.510;2024-03-23T06:01:55;3.27;;;0.90;;
7661;SDS011;30314;48.184;11.510;2024-03-23T06:04:21;1.70;;;1.00;;
7661;SDS011;30314;48.184;11.510;2024-03-23T06:06:48;7.30;;;1.17;;
7661;SDS011;30314;48.184;11.510;2024-03-23T06:09:13;6.73;;;1.30;;
7661;SDS011;30314;48.184;11.510;2024-03-23T06:11:39;3.03;;;1.33;;
7661;SDS011;30314;48.184;11.510;2024-03-23T06:14:04;2.70;;;1.27;;
7661;SDS011;30314;48.184;11.510;2024-03-23T06:16:31;3.20;;;0.57;;
7661;SDS011;30314;48.184;11.510;2024-03-23T06:18:56;1.80;;;1.03;;
7661;SDS011;30314;48.184;11.510;2024-03-23T06:21:23;3.73;;;1.23;;
7661;SDS011;30314;48.184;11.510;2024-03-23T06:23:51;2.80;;;1.00;;
7661;SDS011;30314;48.184;11.510;2024-03-23T06:26:18;1.50;;;1.30;;
7661;SDS011;30314;48.184;11.510;2024-03-23T06:28:45;1.40;;;1.03;;
7661;SDS011;30314;48.184;11.510;2024-03-23T06:31:10;1.33;;;1.00;;
7661;SDS011;30314;48.184;11.510;2024-03-23T06:33:37;1.70;;;1.47;;
7661;SDS011;30314;48.184;11.510;2024-03-23T06:36:03;1.93;;;1.03;;
7661;SDS011;30314;48.184;11.510;2024-03-23T06:38:30;1.50;;;0.77;;
7661;SDS011;30314;48.184;11.510;2024-03-23T06:40:55;1.23;;;0.80;;
7661;SDS011;30314;48.184;11.510;2024-03-23T06:43:21;3.20;;;1.50;;
7661;SDS011;30314;48.184;11.510;2024-03-23T06:45:53;1.80;;;1.20;;
7661;SDS011;30314;48.184;11.510;2024-03-23T06:48:19;2.17;;;1.00;;
7661;SDS011;30314;48.184;11.510;2024-03-23T06:50:45;2.83;;;1.27;;
7661;SDS011;30314;48.184;11.510;2024-03-23T06:53:14;5.37;;;1.00;;
7661;SDS011;30314;48.184;11.510;2024-03-23T06:55:40;5.70;;;1.07;;
7661;SDS011;30314;48.184;11.510;2024-03-23T06:58:06;4.30;;;0.90;;
7661;SDS011;30314;48.184;11.510;2024-03-23T07:00:32;2.23;;;0.90;;
7661;SDS011;30314;48.184;11.510;2024-03-23T07:02:58;3.50;;;1.03;;
7661;SDS011;30314;48.184;11.510;2024-03-23T07:05:24;1.40;;;0.90;;
7661;SDS011;30314;48.184;11.510;2024-03-23T07:07:50;2.13;;;1.20;;
7661;SDS011;30314;48.184;11.510;2024-03-23T07:10:15;3.20;;;1.23;;
7661;SDS011;30314;48.184;11.510;2024-03-23T07:12:41;5.03;;;1.80;;
7661;SDS011;30314;48.184;11.510;2024-03-23T07:15:07;10.07;;;1.40;;
7661;SDS011;30314;48.184;11.510;2024-03-23T07:17:33;1.20;;;0.90;;
7661;SDS011;30314;48.184;11.510;2024-03-23T07:20:00;5.37;;;1.80;;
7661;SDS011;30314;48.184;11.510;2024-03-23T07:22:30;3.70;;;1.17;;
7661;SDS011;30314;48.184;11.510;2024-03-23T07:24:55;4.20;;;1.53;;
7661;SDS011;30314;48.184;11.510;2024-03-23T07:27:21;7.27;;;1.40;;
7661;SDS011;30314;48.184;11.510;2024-03-23T07:29:49;2.50;;;1.30;;
7661;SDS011;30314;48.184;11.510;2024-03-23T07:32:14;1.67;;;1.03;;
7661;SDS011;30314;48.184;11.510;2024-03-23T07:34:40;3.93;;;1.43;;
7661;SDS011;30314;48.184;11.510;2024-03-23T07:37:05;3.40;;;1.47;;
7661;SDS011;30314;48.184;11.510;2024-03-23T07:39:31;4.33;;;1.77;;
7661;SDS011;30314;48.184;11.510;2024-03-23T07:41:59;6.43;;;2.17;;
7661;SDS011;30314;48.184;11.510;2024-03-23T07:44:24;2.20;;;1.60;;
7661;SDS011;30314;48.184;11.510;2024-03-23T07:46:50;2.37;;;1.10;;
7661;SDS011;30314;48.184;11.510;2024-03-23T07:49:16;2.50;;;1.10;;
7661;SDS011;30314;48.184;11.510;2024-03-23T07:51:41;3.50;;;1.37;;
7661;SDS011;30314;48.184;11.510;2024-03-23T07:54:07;4.50;;;1.80;;
7661;SDS011;30314;48.184;11.510;2024-03-23T07:56:32;8.13;;;1.83;;
7661;SDS011;30314;48.184;11.510;2024-03-23T07:58:58;1.50;;;1.03;;
7661;SDS011;30314;48.184;11.510;2024-03-23T08:01:23;1.97;;;1.33;;
7661;SDS011;30314;48.184;11.510;2024-03-23T08:03:49;3.50;;;1.63;;
7661;SDS011;30314;48.184;11.510;2024-03-23T08:06:15;3.47;;;1.40;;
7661;SDS011;30314;48.184;11.510;2024-03-23T08:08:43;3.30;;;1.33;;
7661;SDS011;30314;48.184;11.510;2024-03-23T08:11:10;5.70;;;2.63;;
7661;SDS011;30314;48.184;11.510;2024-03-23T08:13:37;3.23;;;1.80;;
7661;SDS011;30314;48.184;11.510;2024-03-23T08:16:04;3.33;;;1.73;;
7661;SDS011;30314;48.184;11.510;2024-03-23T08:18:30;3.00;;;1.80;;
7661;SDS011;30314;48.184;11.510;2024-03-23T08:23:29;7.70;;;1.53;;
7661;SDS011;30314;48.184;11.510;2024-03-23T08:26:02;2.43;;;1.43;;
7661;SDS011;30314;48.184;11.510;2024-03-23T08:28:29;3.63;;;1.67;;
7661;SDS011;30314;48.184;11.510;2024-03-23T08:30:55;3.97;;;1.80;;
7661;SDS011;30314;48.184;11.510;2024-03-23T08:33:22;4.07;;;2.47;;
7661;SDS011;30314;48.184;11.510;2024-03-23T08:35:54;2.70;;;1.47;;
7661;SDS011;30314;48.184;11.510;2024-03-23T08:38:25;1.60;;;0.97;;
7661;SDS011;30314;48.184;11.510;2024-03-23T08:41:00;2.03;;;0.97;;
7661;SDS011;30314;48.184;11.510;2024-03-23T08:43:30;1.60;;;1.07;;
7661;SDS011;30314;48.184;11.510;2024-03-23T08:48:34;5.87;;;1.60;;
7661;SDS011;30314;48.184;11.510;2024-03-23T08:51:01;3.90;;;2.00;;
7661;SDS011;30314;48.184;11.510;2024-03-23T08:53:29;2.20;;;1.60;;
7661;SDS011;30314;48.184;11.510;2024-03-23T08:55:56;2.57;;;2.07;;
7661;SDS011;30314;48.184;11.510;2024-03-23T08:58:25;4.03;;;2.20;;
7661;SDS011;30314;48.184;11.510;2024-03-23T09:00:54;6.83;;;2.33;;
7661;SDS011;30314;48.184;11.510;2024-03-23T09:03:25;2.10;;;1.70;;
7661;SDS011;30314;48.184;11.510;2024-03-23T09:05:51;2.90;;;1.80;;
7661;SDS011;30314;48.184;11.510;2024-03-23T09:08:18;2.37;;;1.97;;
7661;SDS011;30314;48.184;11.510;2024-03-23T09:10:44;3.37;;;2.37;;
7661;SDS011;30314;48.184;11.510;2024-03-23T09:13:10;3.73;;;1.83;;
7661;SDS011;30314;48.184;11.510;2024-03-23T09:15:36;3.90;;;1.57;;
7661;SDS011;30314;48.184;11.510;2024-03-23T09:18:11;3.60;;;2.17;;
7661;SDS011;30314;48.184;11.510;2024-03-23T09:20:37;5.83;;;2.40;;
7661;SDS011;30314;48.184;11.510;2024-03-23T09:23:03;4.13;;;2.30;;
7661;SDS011;30314;48.184;11.510;2024-03-23T09:25:29;4.00;;;2.03;;
7661;SDS011;30314;48.184;11.510;2024-03-23T09:27:54;3.13;;;1.80;;
7661;SDS011;30314;48.184;11.510;2024-03-23T09:30:20;4.27;;;2.40;;
7661;SDS011;30314;48.184;11.510;2024-03-23T09:32:46;2.07;;;1.70;;
7661;SDS011;30314;48.184;11.510;2024-03-23T09:35:11;8.30;;;2.53;;
7661;SDS011;30314;48.184;11.510;2024-03-23T09:37:40;3.30;;;2.10;;
7661;SDS011;30314;48.184;11.510;2024-03-23T09:40:09;4.27;;;1.93;;
7661;SDS011;30314;48.184;11.510;2024-03-23T09:42:36;6.50;;;1.87;;
7661;SDS011;30314;48.184;11.510;2024-03-23T09:45:06;1.73;;;1.00;;
7661;SDS011;30314;48.184;11.510;2024-03-23T09:47:36;2.70;;;1.33;;
7661;SDS011;30314;48.184;11.510;2024-03-23T09:50:02;3.97;;;1.70;;
7661;SDS011;30314;48.184;11.510;2024-03-23T09:52:30;2.87;;;1.00;;
7661;SDS011;30314;48.184;11.510;2024-03-23T09:54:55;2.20;;;0.80;;
7661;SDS011;30314;48.184;11.510;2024-03-23T09:57:21;2.40;;;1.23;;
7661;SDS011;30314;48.184;11.510;2024-03-23T09:59:47;2.40;;;1.13;;
7661;SDS011;30314;48.184;11.510;2024-03-23T10:02:13;5.03;;;1.20;;
7661;SDS011;30314;48.184;11.510;2024-03-23T10:04:42;4.43;;;1.50;;
7661;SDS011;30314;48.184;11.510;2024-03-23T10:09:38;1.67;;;0.83;;
7661;SDS011;30314;48.184;11.510;2024-03-23T10:12:11;2.77;;;1.67;;
7661;SDS011;30314;48.184;11.510;2024-03-23T10:14:42;2.10;;;1.00;;
7661;SDS011;30314;48.184;11.510;2024-03-23T10:17:11;1.10;;;0.70;;
7661;SDS011;30314;48.184;11.510;2024-03-23T10:19:48;1.10;;;0.60;;
7661;SDS011;30314;48.184;11.510;2024-03-23T10:22:17;1.57;;;0.40;;
7661;SDS011;30314;48.184;11.510;2024-03-23T10:24:46;1.77;;;1.03;;
7661;SDS011;30314;48.184;11.510;2024-03-23T10:27:16;1.37;;;0.80;;
7661;SDS011;30314;48.184;11.510;2024-03-23T10:29:45;1.57;;;0.80;;
7661;SDS011;30314;48.184;11.510;2024-03-23T10:32:12;6.50;;;1.20;;
7661;SDS011;30314;48.184;11.510;2024-03-23T10:34:39;1.87;;;1.10;;
7661;SDS011;30314;48.184;11.510;2024-03-23T10:37:05;3.57;;;1.77;;
7661;SDS011;30314;48.184;11.510;2024-03-23T10:39:38;2.97;;;1.80;;
7661;SDS011;30314;48.184;11.510;2024-03-23T10:42:08;3.73;;;2.07;;
7661;SDS011;30314;48.184;11.510;2024-03-23T10:44:38;3.90;;;2.10;;
7661;SDS011;30314;48.184;11.510;2024-03-23T10:47:04;1.67;;;0.77;;
7661;SDS011;30314;48.184;11.510;2024-03-23T10:49:31;2.00;;;0.80;;
7661;SDS011;30314;48.184;11.510;2024-03-23T10:54:26;4.23;;;0.70;;
7661;SDS011;30314;48.184;11.510;2024-03-23T10:56:56;1.87;;;0.80;;
7661;SDS011;30314;48.184;11.510;2024-03-23T10:59:27;1.77;;;0.67;;
7661;SDS011;30314;48.184;11.510;2024-03-23T11:01:56;1.33;;;0.80;;
7661;SDS011;30314;48.184;11.510;2024-03-23T11:04:29;1.00;;;0.50;;
7661;SDS011;30314;48.184;11.510;2024-03-23T11:06:55;1.60;;;0.70;;
7661;SDS011;30314;48.184;11.510;2024-03-23T11:14:47;2.17;;;1.07;;
7661;SDS011;30314;48.184;11.510;2024-03-23T11:17:17;2.57;;;0.83;;
7661;SDS011;30314;48.184;11.510;2024-03-23T11:19:44;1.70;;;0.87;;
7661;SDS011;30314;48.184;11.510;2024-03-23T11:22:09;1.90;;;0.50;;
7661;SDS011;30314;48.184;11.510;2024-03-23T11:24:35;1.00;;;0.57;;
7661;SDS011;30314;48.184;11.510;2024-03-23T11:27:02;1.23;;;0.77;;
7661;SDS011;30314;48.184;11.510;2024-03-23T11:29:41;1.40;;;0.70;;
7661;SDS011;30314;48.184;11.510;2024-03-23T11:32:07;1.43;;;0.50;;
7661;SDS011;30314;48.184;11.510;2024-03-23T11:34:35;4.80;;;1.50;;
7661;SDS011;30314;48.184;11.510;2024-03-23T11:37:04;1.10;;;0.80;;
7661;SDS011;30314;48.184;11.510;2024-03-23T11:39:31;1.33;;;0.80;;
7661;SDS011;30314;48.184;11.510;2024-03-23T11:41:57;2.13;;;1.30;;
7661;SDS011;30314;48.184;11.510;2024-03-23T11:44:23;7.47;;;1.43;;
7661;SDS011;30314;48.184;11.510;2024-03-23T11:46:51;1.60;;;0.80;;
7661;SDS011;30314;48.184;11.510;2024-03-23T11:49:27;2.27;;;1.37;;
7661;SDS011;30314;48.184;11.510;2024-03-23T11:51:55;1.03;;;0.63;;
7661;SDS011;30314;48.184;11.510;2024-03-23T11:54:22;4.03;;;1.40;;
7661;SDS011;30314;48.184;11.510;2024-03-23T11:57:05;2.73;;;1.20;;
7661;SDS011;30314;48.184;11.510;2024-03-23T11:59:34;3.23;;;0.70;;
7661;SDS011;30314;48.184;11.510;2024-03-23T12:02:05;3.67;;;1.30;;
7661;SDS011;30314;48.184;11.510;2024-03-23T12:04:36;1.30;;;0.70;;
7661;SDS011;30314;48.184;11.510;2024-03-23T12:07:09;1.60;;;0.80;;
7661;SDS011;30314;48.184;11.510;2024-03-23T12:09:38;2.10;;;1.00;;
7661;SDS011;30314;48.184;11.510;2024-03-23T12:12:13;3.10;;;1.33;;
7661;SDS011;30314;48.184;11.510;2024-03-23T12:14:41;4.70;;;1.60;;
7661;SDS011;30314;48.184;11.510;2024-03-23T12:17:11;1.60;;;0.93;;
7661;SDS011;30314;48.184;11.510;2024-03-23T12:19:38;2.03;;;1.10;;
7661;SDS011;30314;48.184;11.510;2024-03-23T12:22:04;3.43;;;1.77;;
7661;SDS011;30314;48.184;11.510;2024-03-23T12:24:31;1.10;;;0.83;;
7661;SDS011;30314;48.184;11.510;2024-03-23T12:27:00;3.30;;;1.20;;
7661;SDS011;30314;48.184;11.510;2024-03-23T12:29:33;5.10;;;1.50;;
7661;SDS011;30314;48.184;11.510;2024-03-23T12:32:02;2.17;;;1.30;;
7661;SDS011;30314;48.184;11.510;2024-03-23T12:34:28;2.77;;;1.30;;
7661;SDS011;30314;48.184;11.510;2024-03-23T12:36:55;4.50;;;1.60;;
7661;SDS011;30314;48.184;11.510;2024-03-23T12:39:21;10.00;;;2.33;;
7661;SDS011;30314;48.184;11.510;2024-03-23T12:41:48;4.60;;;2.10;;
7661;SDS011;30314;48.184;11.510;2024-03-23T12:44:14;3.33;;;1.40;;
7661;SDS011;30314;48.184;11.510;2024-03-23T12:46:43;3.33;;;1.43;;
7661;SDS011;30314;48.184;11.510;2024-03-23T12:49:10;4.20;;;1.50;;
7661;SDS011;30314;48.184;11.510;2024-03-23T12:51:36;4.13;;;1.70;;
7661;SDS011;30314;48.184;11.510;2024-03-23T12:54:02;3.50;;;2.00;;
7661;SDS011;30314;48.184;11.510;2024-03-23T12:56:28;2.07;;;1.60;;
7661;SDS011;30314;48.184;11.510;2024-03-23T12:58:54;2.20;;;1.10;;
7661;SDS011;30314;48.184;11.510;2024-03-23T13:01:25;6.33;;;1.80;;
7661;SDS011;30314;48.184;11.510;2024-03-23T13:03:51;6.37;;;1.63;;
7661;SDS011;30314;48.184;11.510;2024-03-23T13:06:17;3.87;;;1.23;;
7661;SDS011;30314;48.184;11.510;2024-03-23T13:08:46;4.03;;;1.50;;
7661;SDS011;30314;48.184;11.510;2024-03-23T13:11:12;4.73;;;1.53;;
7661;SDS011;30314;48.184;11.510;2024-03-23T13:13:39;4.40;;;1.97;;
7661;SDS011;30314;48.184;11.510;2024-03-23T13:16:17;2.33;;;1.77;;
7661;SDS011;30314;48.184;11.510;2024-03-23T13:18:43;6.03;;;1.60;;
7661;SDS011;30314;48.184;11.510;2024-03-23T13:21:09;3.97;;;1.77;;
7661;SDS011;30314;48.184;11.510;2024-03-23T13:23:35;2.20;;;1.40;;
7661;SDS011;30314;48.184;11.510;2024-03-23T13:26:03;5.47;;;1.57;;
7661;SDS011;30314;48.184;11.510;2024-03-23T13:28:29;3.50;;;2.33;;
7661;SDS011;30314;48.184;11.510;2024-03-23T13:30:55;6.40;;;2.10;;
7661;SDS011;30314;48.184;11.510;2024-03-23T13:33:23;4.07;;;1.67;;
7661;SDS011;30314;48.184;11.510;2024-03-23T13:35:49;4.80;;;1.70;;
7661;SDS011;30314;48.184;11.510;2024-03-23T13:38:18;5.43;;;1.60;;
7661;SDS011;30314;48.184;11.510;2024-03-23T13:43:17;7.00;;;2.10;;
7661;SDS011;30314;48.184;11.510;2024-03-23T13:45:42;3.40;;;2.00;;
7661;SDS011;30314;48.184;11.510;2024-03-23T13:48:09;5.80;;;1.90;;
7661;SDS011;30314;48.184;11.510;2024-03-23T13:50:35;8.47;;;3.20;;
7661;SDS011;30314;48.184;11.510;2024-03-23T13:53:01;7.73;;;2.80;;
7661;SDS011;30314;48.184;11.510;2024-03-23T13:55:26;5.10;;;2.60;;
7661;SDS011;30314;48.184;11.510;2024-03-23T13:57:52;11.30;;;3.53;;
7661;SDS011;30314;48.184;11.510;2024-03-23T14:00:18;8.10;;;3.07;;
7661;SDS011;30314;48.184;11.510;2024-03-23T14:02:44;9.90;;;2.77;;
7661;SDS011;30314;48.184;11.510;2024-03-23T14:05:09;9.37;;;2.50;;
7661;SDS011;30314;48.184;11.510;2024-03-23T14:07:36;6.60;;;2.40;;
7661;SDS011;30314;48.184;11.510;2024-03-23T14:10:03;6.70;;;2.87;;
7661;SDS011;30314;48.184;11.510;2024-03-23T14:12:30;6.70;;;2.83;;
7661;SDS011;30314;48.184;11.510;2024-03-23T14:14:55;9.90;;;3.30;;
7661;SDS011;30314;48.184;11.510;2024-03-23T14:17:21;3.90;;;2.40;;
7661;SDS011;30314;48.184;11.510;2024-03-23T14:19:46;6.60;;;3.00;;
7661;SDS011;30314;48.184;11.510;2024-03-23T14:22:12;8.33;;;3.00;;
7661;SDS011;30314;48.184;11.510;2024-03-23T14:24:38;8.83;;;2.20;;
7661;SDS011;30314;48.184;11.510;2024-03-23T14:27:04;7.53;;;2.80;;
7661;SDS011;30314;48.184;11.510;2024-03-23T14:29:30;2.30;;;1.13;;
7661;SDS011;30314;48.184;11.510;2024-03-23T14:31:56;5.60;;;1.20;;
7661;SDS011;30314;48.184;11.510;2024-03-23T14:34:22;2.30;;;1.23;;
7661;SDS011;30314;48.184;11.510;2024-03-23T14:36:51;4.37;;;1.30;;
7661;SDS011;30314;48.184;11.510;2024-03-23T14:39:17;3.90;;;1.23;;
7661;SDS011;30314;48.184;11.510;2024-03-23T14:41:43;4.83;;;1.60;;
7661;SDS011;30314;48.184;11.510;2024-03-23T14:44:09;7.60;;;1.97;;
7661;SDS011;30314;48.184;11.510;2024-03-23T14:46:35;2.17;;;1.20;;
7661;SDS011;30314;48.184;11.510;2024-03-23T14:49:00;2.13;;;0.90;;
7661;SDS011;30314;48.184;11.510;2024-03-23T14:51:26;3.83;;;1.30;;
7661;SDS011;30314;48.184;11.510;2024-03-23T14:53:53;3.73;;;1.77;;
7661;SDS011;30314;48.184;11.510;2024-03-23T14:56:19;8.27;;;1.30;;
7661;SDS011;30314;48.184;11.510;2024-03-23T14:58:44;9.73;;;1.83;;
7661;SDS011;30314;48.184;11.510;2024-03-23T15:01:11;2.97;;;1.17;;
7661;SDS011;30314;48.184;11.510;2024-03-23T15:03:37;4.97;;;1.40;;
7661;SDS011;30314;48.184;11.510;2024-03-23T15:06:04;3.63;;;1.27;;
7661;SDS011;30314;48.184;11.510;2024-03-23T15:08:30;4.03;;;2.30;;
7661;SDS011;30314;48.184;11.510;2024-03-23T15:10:59;6.77;;;2.30;;
7661;SDS011;30314;48.184;11.510;2024-03-23T15:13:26;3.83;;;1.13;;
7661;SDS011;30314;48.184;11.510;2024-03-23T15:15:51;3.20;;;1.23;;
7661;SDS011;30314;48.184;11.510;2024-03-23T15:18:17;7.10;;;1.70;;
7661;SDS011;30314;48.184;11.510;2024-03-23T15:20:53;3.47;;;1.33;;
7661;SDS011;30314;48.184;11.510;2024-03-23T15:23:23;3.00;;;1.40;;
7661;SDS011;30314;48.184;11.510;2024-03-23T15:25:55;4.40;;;1.33;;
7661;SDS011;30314;48.184;11.510;2024-03-23T15:28:24;4.70;;;1.50;;
7661;SDS011;30314;48.184;11.510;2024-03-23T15:31:06;3.67;;;1.30;;
7661;SDS011;30314;48.184;11.510;2024-03-23T15:33:33;4.27;;;1.27;;
7661;SDS011;30314;48.184;11.510;2024-03-23T15:35:59;5.40;;;1.73;;
7661;SDS011;30314;48.184;11.510;2024-03-23T15:38:25;3.53;;;1.17;;
7661;SDS011;30314;48.184;11.510;2024-03-23T15:40:51;5.10;;;1.50;;
7661;SDS011;30314;48.184;11.510;2024-03-23T15:43:18;3.83;;;1.00;;
7661;SDS011;30314;48.184;11.510;2024-03-23T15:45:44;5.40;;;1.40;;
7661;SDS011;30314;48.184;11.510;2024-03-23T15:48:09;6.13;;;1.60;;
7661;SDS011;30314;48.184;11.510;2024-03-23T15:50:35;8.87;;;1.50;;
7661;SDS011;30314;48.184;11.510;2024-03-23T15:53:01;5.80;;;1.17;;
7661;SDS011;30314;48.184;11.510;2024-03-23T15:55:28;2.83;;;1.20;;
7661;SDS011;30314;48.184;11.510;2024-03-23T15:57:53;6.80;;;1.63;;